SWA2688 KRDU-KBNA
Flight info
| Callsign | SWA2688 |
|---|---|
| Flight time | 1h 20m |
| Altitude | 38000 |
| Route | SHPRD4 SHPRD EDDDY SWFFT3 |
| Aircraft | B38M/M-SDE1FGHILORVWXY/HB1 |
Departure
| Time | 2026-05-08 03:32 |
|---|---|
| Airport | Raleigh-Durham International Airport (KRDU) |
Arrival
| Time | 2026-05-08 04:52 |
|---|---|
| Airport | Nashville International Airport (KBNA) |
| Time | Latitude | Longitude | Altitude | Speed | Heading |
|---|---|---|---|---|---|
| 2026-05-08 03:21 | 35.87420 | -78.78909 | 437 ft | 2 kts | 345° |
| 2026-05-08 03:21 | 35.87416 | -78.78908 | 437 ft | 3 kts | 344° |
| 2026-05-08 03:21 | 35.87391 | -78.78896 | 426 ft | 4 kts | 329° |
| 2026-05-08 03:21 | 35.87371 | -78.78876 | 422 ft | 4 kts | 308° |
| 2026-05-08 03:22 | 35.87359 | -78.78847 | 423 ft | 4 kts | 279° |
| 2026-05-08 03:22 | 35.87362 | -78.78819 | 428 ft | 4 kts | 233° |
| 2026-05-08 03:22 | 35.87365 | -78.78814 | 432 ft | 2 kts | 225° |
| 2026-05-08 03:24 | 35.87360 | -78.78819 | 438 ft | 6 kts | 225° |
| 2026-05-08 03:24 | 35.87294 | -78.78901 | 428 ft | 21 kts | 225° |
| 2026-05-08 03:25 | 35.87158 | -78.79068 | 428 ft | 34 kts | 225° |
| 2026-05-08 03:25 | 35.87016 | -78.79244 | 427 ft | 33 kts | 225° |
| 2026-05-08 03:25 | 35.86861 | -78.79434 | 438 ft | 21 kts | 225° |
| 2026-05-08 03:25 | 35.86796 | -78.79514 | 432 ft | 8 kts | 225° |
| 2026-05-08 03:26 | 35.86780 | -78.79534 | 425 ft | 4 kts | 225° |
| 2026-05-08 03:26 | 35.86758 | -78.79562 | 434 ft | 0 kts | 225° |
| 2026-05-08 03:26 | 35.86743 | -78.79579 | 430 ft | 6 kts | 225° |
| 2026-05-08 03:26 | 35.86741 | -78.79582 | 430 ft | 2 kts | 225° |
| 2026-05-08 03:27 | 35.86710 | -78.79620 | 430 ft | 8 kts | 225° |
| 2026-05-08 03:27 | 35.86682 | -78.79654 | 434 ft | 10 kts | 225° |
| 2026-05-08 03:27 | 35.86614 | -78.79738 | 431 ft | 7 kts | 225° |
| 2026-05-08 03:27 | 35.86581 | -78.79778 | 431 ft | 2 kts | 225° |
| 2026-05-08 03:28 | 35.86579 | -78.79781 | 434 ft | 1 kts | 225° |
| 2026-05-08 03:28 | 35.86572 | -78.79779 | 438 ft | 2 kts | 152° |
| 2026-05-08 03:29 | 35.86574 | -78.79763 | 433 ft | 3 kts | 50° |
| 2026-05-08 03:29 | 35.86637 | -78.79702 | 428 ft | 19 kts | 41° |
| 2026-05-08 03:29 | 35.86745 | -78.79579 | 430 ft | 18 kts | 42° |
| 2026-05-08 03:29 | 35.86874 | -78.79642 | 436 ft | 30 kts | 313° |
| 2026-05-08 03:30 | 35.87105 | -78.79923 | 409 ft | 32 kts | 319° |
| 2026-05-08 03:30 | 35.87444 | -78.80169 | 393 ft | 13 kts | 353° |
| 2026-05-08 03:31 | 35.87876 | -78.79666 | 394 ft | 97 kts | 45° |
| 2026-05-08 03:31 | 35.89274 | -78.77921 | 592 ft | 171 kts | 47° |
| 2026-05-08 03:32 | 35.90073 | -78.76822 | 1216 ft | 172 kts | 48° |
| 2026-05-08 03:32 | 35.90816 | -78.75676 | 1859 ft | 174 kts | 50° |
| 2026-05-08 03:32 | 35.91519 | -78.74459 | 2350 ft | 182 kts | 41° |
| 2026-05-08 03:32 | 35.92674 | -78.73842 | 2737 ft | 192 kts | 356° |
| 2026-05-08 03:33 | 35.93925 | -78.74530 | 3110 ft | 214 kts | 316° |
| 2026-05-08 03:33 | 35.94534 | -78.76270 | 3541 ft | 229 kts | 279° |
| 2026-05-08 03:33 | 35.94165 | -78.78249 | 3590 ft | 245 kts | 245° |
| 2026-05-08 03:33 | 35.93431 | -78.80154 | 4375 ft | 250 kts | 261° |
| 2026-05-08 03:34 | 35.93103 | -78.82315 | 4997 ft | 263 kts | 263° |
| 2026-05-08 03:34 | 35.92730 | -78.84501 | 6052 ft | 257 kts | 260° |
| 2026-05-08 03:34 | 35.92337 | -78.86624 | 7126 ft | 251 kts | 258° |
| 2026-05-08 03:34 | 35.91931 | -78.88735 | 7975 ft | 253 kts | 258° |
| 2026-05-08 03:35 | 35.91520 | -78.90845 | 8872 ft | 252 kts | 257° |
| 2026-05-08 03:35 | 35.91102 | -78.92951 | 9730 ft | 253 kts | 257° |
| 2026-05-08 03:35 | 35.90679 | -78.95070 | 10422 ft | 259 kts | 257° |
| 2026-05-08 03:35 | 35.90237 | -78.97305 | 10731 ft | 278 kts | 257° |
| 2026-05-08 03:36 | 35.89766 | -78.99709 | 10976 ft | 298 kts | 257° |
| 2026-05-08 03:36 | 35.89267 | -79.02249 | 11168 ft | 318 kts | 257° |
| 2026-05-08 03:36 | 35.88728 | -79.04975 | 11344 ft | 336 kts | 257° |
| 2026-05-08 03:36 | 35.88157 | -79.07834 | 11651 ft | 349 kts | 257° |
| 2026-05-08 03:37 | 35.87565 | -79.10747 | 12287 ft | 351 kts | 257° |
| 2026-05-08 03:37 | 35.86959 | -79.13684 | 12904 ft | 355 kts | 257° |
| 2026-05-08 03:37 | 35.86344 | -79.16646 | 13558 ft | 358 kts | 257° |
| 2026-05-08 03:37 | 35.85721 | -79.19629 | 14165 ft | 361 kts | 257° |
| 2026-05-08 03:38 | 35.85093 | -79.22632 | 14845 ft | 361 kts | 257° |
| 2026-05-08 03:38 | 35.84465 | -79.25628 | 15575 ft | 361 kts | 258° |
| 2026-05-08 03:38 | 35.83832 | -79.28636 | 16249 ft | 362 kts | 258° |
| 2026-05-08 03:38 | 35.83424 | -79.31683 | 16875 ft | 361 kts | 266° |
| 2026-05-08 03:39 | 35.83189 | -79.34769 | 17471 ft | 362 kts | 266° |
| 2026-05-08 03:39 | 35.82952 | -79.37869 | 18070 ft | 363 kts | 266° |
| 2026-05-08 03:39 | 35.82720 | -79.40928 | 18577 ft | 364 kts | 266° |
| 2026-05-08 03:39 | 35.82483 | -79.44044 | 19022 ft | 366 kts | 266° |
| 2026-05-08 03:40 | 35.82244 | -79.47173 | 19473 ft | 368 kts | 265° |
| 2026-05-08 03:40 | 35.82004 | -79.50319 | 19900 ft | 370 kts | 265° |
| 2026-05-08 03:40 | 35.81726 | -79.53478 | 20316 ft | 372 kts | 261° |
| 2026-05-08 03:40 | 35.81164 | -79.56600 | 20736 ft | 375 kts | 259° |
| 2026-05-08 03:41 | 35.80607 | -79.59749 | 21160 ft | 377 kts | 260° |
| 2026-05-08 03:41 | 35.80059 | -79.62915 | 21556 ft | 379 kts | 260° |
| 2026-05-08 03:41 | 35.79517 | -79.66089 | 21975 ft | 379 kts | 259° |
| 2026-05-08 03:41 | 35.78977 | -79.69269 | 22415 ft | 380 kts | 259° |
| 2026-05-08 03:42 | 35.78436 | -79.72463 | 22797 ft | 382 kts | 259° |
| 2026-05-08 03:42 | 35.77891 | -79.75675 | 23171 ft | 384 kts | 259° |
| 2026-05-08 03:42 | 35.77343 | -79.78901 | 23561 ft | 386 kts | 259° |
| 2026-05-08 03:42 | 35.76793 | -79.82138 | 23863 ft | 388 kts | 259° |
| 2026-05-08 03:43 | 35.76238 | -79.85391 | 24183 ft | 389 kts | 259° |
| 2026-05-08 03:43 | 35.75682 | -79.88649 | 24533 ft | 389 kts | 259° |
| 2026-05-08 03:43 | 35.75125 | -79.91907 | 24875 ft | 389 kts | 260° |
| 2026-05-08 03:43 | 35.74567 | -79.95163 | 25213 ft | 389 kts | 260° |
| 2026-05-08 03:44 | 35.74015 | -79.98379 | 25526 ft | 389 kts | 260° |
| 2026-05-08 03:44 | 35.73455 | -80.01634 | 25892 ft | 387 kts | 260° |
| 2026-05-08 03:44 | 35.72900 | -80.04858 | 26332 ft | 383 kts | 260° |
| 2026-05-08 03:44 | 35.72350 | -80.08047 | 26779 ft | 379 kts | 261° |
| 2026-05-08 03:45 | 35.71806 | -80.11196 | 27254 ft | 374 kts | 261° |
| 2026-05-08 03:45 | 35.71267 | -80.14311 | 27752 ft | 370 kts | 261° |
| 2026-05-08 03:45 | 35.70733 | -80.17389 | 28276 ft | 365 kts | 261° |
| 2026-05-08 03:45 | 35.70205 | -80.20428 | 28783 ft | 361 kts | 261° |
| 2026-05-08 03:46 | 35.69683 | -80.23427 | 29323 ft | 356 kts | 262° |
| 2026-05-08 03:46 | 35.69167 | -80.26393 | 29869 ft | 352 kts | 262° |
| 2026-05-08 03:46 | 35.68657 | -80.29312 | 30368 ft | 347 kts | 262° |
| 2026-05-08 03:46 | 35.68151 | -80.32203 | 30800 ft | 344 kts | 262° |
| 2026-05-08 03:47 | 35.67648 | -80.35076 | 31187 ft | 342 kts | 262° |
| 2026-05-08 03:47 | 35.67149 | -80.37928 | 31574 ft | 341 kts | 261° |
| 2026-05-08 03:47 | 35.66651 | -80.40767 | 31970 ft | 339 kts | 261° |
| 2026-05-08 03:47 | 35.66160 | -80.43562 | 32344 ft | 338 kts | 261° |
| 2026-05-08 03:48 | 35.65682 | -80.46379 | 32734 ft | 335 kts | 264° |
| 2026-05-08 03:48 | 35.65704 | -80.49227 | 33123 ft | 333 kts | 274° |
| 2026-05-08 03:48 | 35.65902 | -80.52054 | 33481 ft | 332 kts | 273° |
| 2026-05-08 03:48 | 35.66109 | -80.54879 | 33829 ft | 331 kts | 273° |
| 2026-05-08 03:49 | 35.66330 | -80.57694 | 34158 ft | 331 kts | 273° |
| 2026-05-08 03:49 | 35.66561 | -80.60505 | 34448 ft | 330 kts | 274° |
| 2026-05-08 03:49 | 35.66797 | -80.63309 | 34718 ft | 330 kts | 274° |
| 2026-05-08 03:49 | 35.67037 | -80.66114 | 34998 ft | 329 kts | 274° |
| 2026-05-08 03:50 | 35.67276 | -80.68914 | 35275 ft | 329 kts | 274° |
| 2026-05-08 03:50 | 35.67516 | -80.71719 | 35535 ft | 329 kts | 274° |
| 2026-05-08 03:50 | 35.67756 | -80.74516 | 35814 ft | 328 kts | 274° |
| 2026-05-08 03:50 | 35.67994 | -80.77309 | 36066 ft | 328 kts | 274° |
| 2026-05-08 03:51 | 35.68231 | -80.80099 | 36321 ft | 328 kts | 274° |
| 2026-05-08 03:51 | 35.68468 | -80.82889 | 36569 ft | 328 kts | 274° |
| 2026-05-08 03:51 | 35.68703 | -80.85675 | 36806 ft | 327 kts | 274° |
| 2026-05-08 03:51 | 35.68938 | -80.88458 | 37048 ft | 327 kts | 274° |
| 2026-05-08 03:52 | 35.69170 | -80.91206 | 37272 ft | 327 kts | 274° |
| 2026-05-08 03:52 | 35.69403 | -80.93983 | 37517 ft | 326 kts | 274° |
| 2026-05-08 03:52 | 35.69634 | -80.96747 | 37742 ft | 325 kts | 274° |
| 2026-05-08 03:52 | 35.69864 | -80.99512 | 37937 ft | 325 kts | 274° |
| 2026-05-08 03:53 | 35.70095 | -81.02281 | 38031 ft | 325 kts | 275° |
| 2026-05-08 03:53 | 35.70551 | -81.07794 | 38031 ft | 323 kts | 274° |
| 2026-05-08 03:54 | 35.71004 | -81.13294 | 38015 ft | 323 kts | 274° |
| 2026-05-08 03:54 | 35.71455 | -81.18798 | 38002 ft | 323 kts | 274° |
| 2026-05-08 03:55 | 35.71903 | -81.24297 | 38015 ft | 323 kts | 274° |
| 2026-05-08 03:55 | 35.72349 | -81.29804 | 38036 ft | 322 kts | 275° |
| 2026-05-08 03:56 | 35.72790 | -81.35280 | 38022 ft | 321 kts | 275° |
| 2026-05-08 03:56 | 35.73228 | -81.40754 | 38018 ft | 321 kts | 275° |
| 2026-05-08 03:57 | 35.73664 | -81.46230 | 38016 ft | 321 kts | 274° |
| 2026-05-08 03:57 | 35.74095 | -81.51676 | 38018 ft | 322 kts | 274° |
| 2026-05-08 03:58 | 35.74526 | -81.57153 | 38063 ft | 321 kts | 274° |
| 2026-05-08 03:58 | 35.74954 | -81.62629 | 38063 ft | 321 kts | 274° |
| 2026-05-08 03:59 | 35.75380 | -81.68103 | 38079 ft | 319 kts | 275° |
| 2026-05-08 03:59 | 35.75799 | -81.73518 | 38053 ft | 317 kts | 275° |
| 2026-05-08 04:00 | 35.76215 | -81.78935 | 38038 ft | 317 kts | 275° |
| 2026-05-08 04:00 | 35.76628 | -81.84345 | 38034 ft | 318 kts | 274° |
| 2026-05-08 04:01 | 35.77040 | -81.89768 | 38015 ft | 318 kts | 274° |
| 2026-05-08 04:01 | 35.77450 | -81.95202 | 38002 ft | 318 kts | 274° |
| 2026-05-08 04:02 | 35.77854 | -82.00603 | 37998 ft | 319 kts | 274° |
| 2026-05-08 04:02 | 35.78260 | -82.06037 | 37969 ft | 318 kts | 274° |
| 2026-05-08 04:03 | 35.78663 | -82.11475 | 38009 ft | 320 kts | 274° |
| 2026-05-08 04:03 | 35.79196 | -82.18719 | 38004 ft | 318 kts | 274° |
| 2026-05-08 04:04 | 35.79591 | -82.24148 | 38036 ft | 318 kts | 275° |
| 2026-05-08 04:04 | 35.79987 | -82.29581 | 37931 ft | 317 kts | 274° |
| 2026-05-08 04:05 | 35.80377 | -82.34994 | 38003 ft | 319 kts | 274° |
| 2026-05-08 04:05 | 35.80769 | -82.40413 | 38001 ft | 318 kts | 274° |
| 2026-05-08 04:06 | 35.81152 | -82.45848 | 38011 ft | 319 kts | 274° |
| 2026-05-08 04:06 | 35.81538 | -82.51289 | 38006 ft | 318 kts | 274° |
| 2026-05-08 04:07 | 35.81919 | -82.56725 | 38022 ft | 319 kts | 274° |
| 2026-05-08 04:07 | 35.82300 | -82.62172 | 38019 ft | 319 kts | 274° |
| 2026-05-08 04:08 | 35.82678 | -82.67615 | 38014 ft | 319 kts | 274° |
| 2026-05-08 04:08 | 35.83050 | -82.73022 | 38031 ft | 319 kts | 274° |
| 2026-05-08 04:09 | 35.83423 | -82.78462 | 38031 ft | 319 kts | 273° |
| 2026-05-08 04:09 | 35.83793 | -82.83909 | 38046 ft | 319 kts | 273° |
| 2026-05-08 04:10 | 35.84161 | -82.89350 | 38020 ft | 318 kts | 273° |
| 2026-05-08 04:10 | 35.84525 | -82.94790 | 38019 ft | 318 kts | 273° |
| 2026-05-08 04:11 | 35.84889 | -83.00235 | 38016 ft | 319 kts | 273° |
| 2026-05-08 04:11 | 35.85249 | -83.05678 | 38034 ft | 319 kts | 273° |
| 2026-05-08 04:12 | 35.85607 | -83.11125 | 38031 ft | 319 kts | 273° |
| 2026-05-08 04:12 | 35.85959 | -83.16533 | 38044 ft | 319 kts | 273° |
| 2026-05-08 04:13 | 35.86313 | -83.21987 | 38031 ft | 318 kts | 273° |
| 2026-05-08 04:13 | 35.86664 | -83.27438 | 38039 ft | 319 kts | 273° |
| 2026-05-08 04:14 | 35.87012 | -83.32883 | 38068 ft | 319 kts | 273° |
| 2026-05-08 04:14 | 35.87358 | -83.38338 | 38044 ft | 319 kts | 273° |
| 2026-05-08 04:15 | 35.87702 | -83.43794 | 38042 ft | 319 kts | 273° |
| 2026-05-08 04:15 | 35.88042 | -83.49248 | 38038 ft | 319 kts | 273° |
| 2026-05-08 04:16 | 35.88381 | -83.54704 | 38044 ft | 320 kts | 273° |
| 2026-05-08 04:16 | 35.88720 | -83.60183 | 38048 ft | 320 kts | 273° |
| 2026-05-08 04:17 | 35.89054 | -83.65620 | 38065 ft | 320 kts | 273° |
| 2026-05-08 04:17 | 35.89387 | -83.71092 | 38072 ft | 320 kts | 273° |
| 2026-05-08 04:18 | 35.89718 | -83.76565 | 38076 ft | 320 kts | 273° |
| 2026-05-08 04:18 | 35.90047 | -83.82042 | 38072 ft | 320 kts | 272° |
| 2026-05-08 04:19 | 35.90373 | -83.87518 | 38072 ft | 320 kts | 272° |
| 2026-05-08 04:19 | 35.89858 | -83.92805 | 38040 ft | 322 kts | 263° |
| 2026-05-08 04:20 | 35.89032 | -83.98233 | 38073 ft | 323 kts | 262° |
| 2026-05-08 04:20 | 35.88160 | -84.03667 | 38056 ft | 322 kts | 262° |
| 2026-05-08 04:21 | 35.87272 | -84.09088 | 38064 ft | 323 kts | 262° |
| 2026-05-08 04:21 | 35.86379 | -84.14506 | 38059 ft | 322 kts | 262° |
| 2026-05-08 04:22 | 35.85483 | -84.19921 | 38050 ft | 322 kts | 262° |
| 2026-05-08 04:22 | 35.84588 | -84.25304 | 38067 ft | 322 kts | 262° |
| 2026-05-08 04:23 | 35.83688 | -84.30722 | 38073 ft | 322 kts | 262° |
| 2026-05-08 04:23 | 35.82788 | -84.36121 | 38063 ft | 321 kts | 262° |
| 2026-05-08 04:24 | 35.81884 | -84.41523 | 38055 ft | 322 kts | 262° |
| 2026-05-08 04:24 | 35.81432 | -84.44220 | 37896 ft | 321 kts | 262° |
| 2026-05-08 04:24 | 35.80978 | -84.46926 | 37067 ft | 322 kts | 262° |
| 2026-05-08 04:25 | 35.80528 | -84.49596 | 36631 ft | 315 kts | 262° |
| 2026-05-08 04:25 | 35.80087 | -84.52215 | 36191 ft | 309 kts | 261° |
| 2026-05-08 04:25 | 35.79654 | -84.54785 | 35744 ft | 304 kts | 261° |
| 2026-05-08 04:25 | 35.79225 | -84.57320 | 35196 ft | 302 kts | 261° |
| 2026-05-08 04:26 | 35.78793 | -84.59881 | 34521 ft | 308 kts | 261° |
| 2026-05-08 04:26 | 35.78354 | -84.62476 | 33782 ft | 310 kts | 261° |
| 2026-05-08 04:26 | 35.77912 | -84.65081 | 32989 ft | 312 kts | 261° |
| 2026-05-08 04:26 | 35.77468 | -84.67696 | 32266 ft | 312 kts | 261° |
| 2026-05-08 04:27 | 35.77016 | -84.70360 | 31529 ft | 323 kts | 262° |
| 2026-05-08 04:27 | 35.76550 | -84.73097 | 30794 ft | 330 kts | 262° |
| 2026-05-08 04:27 | 35.76074 | -84.75888 | 29998 ft | 336 kts | 262° |
| 2026-05-08 04:27 | 35.75589 | -84.78725 | 29050 ft | 343 kts | 262° |
| 2026-05-08 04:28 | 35.75089 | -84.81643 | 28127 ft | 353 kts | 262° |
| 2026-05-08 04:28 | 35.74576 | -84.84636 | 27250 ft | 363 kts | 261° |
| 2026-05-08 04:28 | 35.74047 | -84.87717 | 26572 ft | 372 kts | 261° |
| 2026-05-08 04:28 | 35.73506 | -84.90868 | 25889 ft | 379 kts | 261° |
| 2026-05-08 04:29 | 35.72955 | -84.94065 | 25220 ft | 382 kts | 261° |
| 2026-05-08 04:29 | 35.72409 | -84.97234 | 24561 ft | 384 kts | 261° |
| 2026-05-08 04:29 | 35.71851 | -85.00461 | 23896 ft | 386 kts | 260° |
| 2026-05-08 04:29 | 35.71290 | -85.03704 | 23155 ft | 388 kts | 260° |
| 2026-05-08 04:30 | 35.70727 | -85.06955 | 22416 ft | 389 kts | 260° |
| 2026-05-08 04:30 | 35.70163 | -85.10207 | 21753 ft | 387 kts | 260° |
| 2026-05-08 04:30 | 35.69601 | -85.13438 | 21121 ft | 385 kts | 260° |
| 2026-05-08 04:30 | 35.69044 | -85.16644 | 20476 ft | 382 kts | 260° |
| 2026-05-08 04:31 | 35.68483 | -85.19825 | 20134 ft | 380 kts | 259° |
| 2026-05-08 04:31 | 35.67900 | -85.23001 | 20035 ft | 381 kts | 259° |
| 2026-05-08 04:31 | 35.67316 | -85.26187 | 19984 ft | 381 kts | 259° |
| 2026-05-08 04:31 | 35.66733 | -85.29367 | 19937 ft | 381 kts | 259° |
| 2026-05-08 04:32 | 35.66150 | -85.32545 | 19851 ft | 381 kts | 259° |
| 2026-05-08 04:32 | 35.65567 | -85.35721 | 19825 ft | 380 kts | 259° |
| 2026-05-08 04:32 | 35.64985 | -85.38886 | 19793 ft | 380 kts | 259° |
| 2026-05-08 04:32 | 35.64401 | -85.42054 | 19753 ft | 380 kts | 259° |
| 2026-05-08 04:33 | 35.63817 | -85.45223 | 19715 ft | 380 kts | 259° |
| 2026-05-08 04:33 | 35.63232 | -85.48387 | 19672 ft | 380 kts | 259° |
| 2026-05-08 04:33 | 35.62646 | -85.51556 | 19632 ft | 380 kts | 259° |
| 2026-05-08 04:33 | 35.62059 | -85.54718 | 19586 ft | 374 kts | 259° |
| 2026-05-08 04:34 | 35.61502 | -85.57720 | 19557 ft | 356 kts | 259° |
| 2026-05-08 04:34 | 35.60963 | -85.60620 | 19517 ft | 339 kts | 259° |
| 2026-05-08 04:34 | 35.60449 | -85.63381 | 19476 ft | 325 kts | 259° |
| 2026-05-08 04:34 | 35.59955 | -85.66031 | 19451 ft | 315 kts | 259° |
| 2026-05-08 04:35 | 35.59466 | -85.68654 | 19393 ft | 315 kts | 259° |
| 2026-05-08 04:35 | 35.58975 | -85.71279 | 19342 ft | 315 kts | 259° |
| 2026-05-08 04:35 | 35.58485 | -85.73900 | 19303 ft | 315 kts | 259° |
| 2026-05-08 04:35 | 35.57993 | -85.76521 | 19259 ft | 315 kts | 259° |
| 2026-05-08 04:36 | 35.57502 | -85.79142 | 19219 ft | 315 kts | 259° |
| 2026-05-08 04:36 | 35.57009 | -85.81763 | 19181 ft | 315 kts | 259° |
| 2026-05-08 04:36 | 35.56518 | -85.84379 | 19145 ft | 315 kts | 259° |
| 2026-05-08 04:36 | 35.56027 | -85.86997 | 19095 ft | 314 kts | 260° |
| 2026-05-08 04:37 | 35.55918 | -85.89663 | 18576 ft | 314 kts | 278° |
| 2026-05-08 04:37 | 35.56628 | -85.92185 | 18174 ft | 316 kts | 295° |
| 2026-05-08 04:37 | 35.57952 | -85.94363 | 17713 ft | 319 kts | 304° |
| 2026-05-08 04:37 | 35.59403 | -85.96429 | 17206 ft | 319 kts | 306° |
| 2026-05-08 04:38 | 35.60878 | -85.98476 | 16705 ft | 320 kts | 306° |
| 2026-05-08 04:38 | 35.62366 | -86.00512 | 16221 ft | 319 kts | 306° |
| 2026-05-08 04:38 | 35.63857 | -86.02534 | 15758 ft | 318 kts | 307° |
| 2026-05-08 04:38 | 35.65348 | -86.04544 | 15291 ft | 318 kts | 307° |
| 2026-05-08 04:39 | 35.66840 | -86.06549 | 14813 ft | 318 kts | 307° |
| 2026-05-08 04:39 | 35.68331 | -86.08551 | 14351 ft | 317 kts | 307° |
| 2026-05-08 04:39 | 35.69798 | -86.10563 | 13945 ft | 313 kts | 303° |
| 2026-05-08 04:39 | 35.70729 | -86.12939 | 13351 ft | 309 kts | 282° |
| 2026-05-08 04:40 | 35.70857 | -86.15564 | 12843 ft | 308 kts | 270° |
| 2026-05-08 04:40 | 35.70824 | -86.18190 | 12426 ft | 306 kts | 270° |
| 2026-05-08 04:40 | 35.70780 | -86.20776 | 11982 ft | 298 kts | 270° |
| 2026-05-08 04:40 | 35.70726 | -86.23283 | 11573 ft | 289 kts | 270° |
| 2026-05-08 04:41 | 35.70667 | -86.25719 | 11149 ft | 281 kts | 270° |
| 2026-05-08 04:41 | 35.70606 | -86.28096 | 10743 ft | 275 kts | 270° |
| 2026-05-08 04:41 | 35.70543 | -86.30418 | 10355 ft | 269 kts | 270° |
| 2026-05-08 04:41 | 35.70398 | -86.32683 | 10039 ft | 263 kts | 259° |
| 2026-05-08 04:42 | 35.69691 | -86.34727 | 10035 ft | 266 kts | 246° |
| 2026-05-08 04:42 | 35.69143 | -86.36844 | 10209 ft | 258 kts | 271° |
| 2026-05-08 04:42 | 35.69515 | -86.38956 | 9855 ft | 254 kts | 294° |
| 2026-05-08 04:42 | 35.70276 | -86.40931 | 9294 ft | 257 kts | 296° |
| 2026-05-08 04:43 | 35.71054 | -86.42933 | 8698 ft | 260 kts | 296° |
| 2026-05-08 04:43 | 35.71832 | -86.44953 | 8105 ft | 263 kts | 295° |
| 2026-05-08 04:43 | 35.72613 | -86.46996 | 7523 ft | 265 kts | 296° |
| 2026-05-08 04:43 | 35.73397 | -86.49063 | 6951 ft | 267 kts | 296° |
| 2026-05-08 04:44 | 35.74181 | -86.51146 | 6369 ft | 269 kts | 296° |
| 2026-05-08 04:44 | 35.74977 | -86.53250 | 5742 ft | 272 kts | 296° |
| 2026-05-08 04:44 | 35.75785 | -86.55362 | 5116 ft | 274 kts | 296° |
| 2026-05-08 04:44 | 35.76604 | -86.57482 | 4507 ft | 276 kts | 296° |
| 2026-05-08 04:45 | 35.77432 | -86.59613 | 4070 ft | 271 kts | 296° |
| 2026-05-08 04:45 | 35.78214 | -86.61633 | 4020 ft | 253 kts | 296° |
| 2026-05-08 04:45 | 35.78957 | -86.63549 | 4018 ft | 251 kts | 296° |
| 2026-05-08 04:45 | 35.79708 | -86.65485 | 4006 ft | 250 kts | 296° |
| 2026-05-08 04:46 | 35.80459 | -86.67419 | 4003 ft | 251 kts | 296° |
| 2026-05-08 04:46 | 35.81213 | -86.69358 | 4001 ft | 251 kts | 296° |
| 2026-05-08 04:46 | 35.81966 | -86.71294 | 3997 ft | 250 kts | 296° |
| 2026-05-08 04:46 | 35.82952 | -86.73039 | 3955 ft | 249 kts | 322° |
| 2026-05-08 04:47 | 35.84532 | -86.73849 | 3669 ft | 251 kts | 351° |
| 2026-05-08 04:47 | 35.86295 | -86.74041 | 3227 ft | 257 kts | 355° |
| 2026-05-08 04:47 | 35.88077 | -86.74189 | 3011 ft | 253 kts | 356° |
| 2026-05-08 04:47 | 35.89803 | -86.74332 | 3017 ft | 248 kts | 356° |
| 2026-05-08 04:48 | 35.91526 | -86.74475 | 3019 ft | 248 kts | 356° |
| 2026-05-08 04:48 | 35.93252 | -86.74619 | 3014 ft | 248 kts | 356° |
| 2026-05-08 04:48 | 35.94972 | -86.74727 | 3005 ft | 248 kts | 3° |
| 2026-05-08 04:48 | 35.96557 | -86.74000 | 3003 ft | 246 kts | 37° |
| 2026-05-08 04:49 | 35.97912 | -86.72675 | 3010 ft | 249 kts | 35° |
| 2026-05-08 04:49 | 35.99402 | -86.71605 | 2992 ft | 247 kts | 24° |
| 2026-05-08 04:49 | 36.00964 | -86.70871 | 2825 ft | 234 kts | 18° |
| 2026-05-08 04:49 | 36.02454 | -86.70285 | 2495 ft | 218 kts | 17° |
| 2026-05-08 04:50 | 36.03806 | -86.69750 | 2202 ft | 190 kts | 17° |
| 2026-05-08 04:50 | 36.04984 | -86.69280 | 1969 ft | 166 kts | 17° |
| 2026-05-08 04:50 | 36.06023 | -86.68864 | 1716 ft | 151 kts | 18° |
| 2026-05-08 04:50 | 36.06998 | -86.68474 | 1396 ft | 147 kts | 18° |
| 2026-05-08 04:51 | 36.07981 | -86.68063 | 1093 ft | 151 kts | 18° |
| 2026-05-08 04:51 | 36.08979 | -86.67660 | 963 ft | 155 kts | 16° |
| 2026-05-08 04:51 | 36.10007 | -86.67263 | 842 ft | 155 kts | 17° |
| 2026-05-08 04:51 | 36.11030 | -86.66857 | 682 ft | 154 kts | 17° |
| 2026-05-08 04:52 | 36.12008 | -86.66470 | 589 ft | 119 kts | 17° |
| 2026-05-08 04:52 | 36.12410 | -86.66313 | 579 ft | 25 kts | 17° |
| 2026-05-08 04:52 | 36.12563 | -86.66263 | 582 ft | 16 kts | 1° |
| 2026-05-08 04:52 | 36.12629 | -86.66318 | 578 ft | 6 kts | 290° |
| 2026-05-08 04:53 | 36.12613 | -86.66369 | 579 ft | 8 kts | 211° |
| 2026-05-08 04:53 | 36.12550 | -86.66393 | 581 ft | 11 kts | 196° |
| 2026-05-08 04:53 | 36.12465 | -86.66427 | 577 ft | 14 kts | 200° |
| 2026-05-08 04:53 | 36.12365 | -86.66471 | 578 ft | 16 kts | 199° |
| 2026-05-08 04:54 | 36.12276 | -86.66552 | 576 ft | 19 kts | 271° |
| 2026-05-08 04:54 | 36.12325 | -86.66715 | 574 ft | 23 kts | 287° |
| 2026-05-08 04:54 | 36.12405 | -86.66906 | 567 ft | 26 kts | 315° |
| 2026-05-08 04:54 | 36.12536 | -86.66917 | 570 ft | 17 kts | 25° |
| 2026-05-08 04:55 | 36.12610 | -86.66863 | 569 ft | 0 kts | 39° |